Currently 61°F in Riverside (Presidential Park), California, USA
61°F
65°F / 61°F
calm
0.00"
Monday, May 29, 2017 2:45 AM PDT

Riverside (Presidential Park), California Weather Summary
Last 36 Hours

Temperature Winds Hourly Humidity Dewpoint
Time Report Norm Report Norm Max Gusts Precip. Rpt. Norm Rpt. Norm Pressure
1Mon 02:45 AM  60.5°F  60°F  calm  2 mph  1 mph  0.00"  76%  79%  53°F  54°F  29.93"
3Mon 02:41 AM  60.5°F  61°F  calm  2 mph  1 mph  ----  76%  79%  53°F  54°F  29.93"
Mon 02:00 AM  61.5°F  61°F  2 mph SE  2 mph  3 mph  0.00"  75%  78%  53°F  54°F  29.94"
Mon 01:00 AM  62.9°F  62°F  3 mph E  2 mph  4 mph  0.00"  71%  76%  53°F  54°F  29.96"
2Mon 12:00 AM  64.7°F  63°F  calm  2 mph  8 mph  0.00"  69%  74%  54°F  54°F  29.97"
Sun 11:00 PM  66.4°F  64°F  6 mph W  3 mph  8 mph  0.00"  66%  71%  54°F  54°F  29.98"
Sun 10:00 PM  67.3°F  66°F  4 mph W  4 mph  9 mph  0.00"  64%  67%  54°F  54°F  29.98"
Sun 09:00 PM  69.9°F  68°F  5 mph W  4 mph  8 mph  0.00"  57%  62%  54°F  54°F  29.96"
Sun 08:00 PM  73.8°F  71°F  3 mph W  5 mph  11 mph  0.00"  49%  55%  53°F  53°F  29.95"
Sun 07:00 PM  77.1°F  74°F  8 mph SW  7 mph  12 mph  0.00"  44%  49%  53°F  53°F  29.93"
Sun 06:00 PM  79.4°F  76°F  5 mph W  8 mph  16 mph  0.00"  40%  44%  52°F  52°F  29.92"
Sun 05:00 PM  81.1°F  78°F  9 mph SW  8 mph  15 mph  0.00"  38%  42%  52°F  52°F  29.92"
Sun 04:00 PM  83.1°F  79°F  6 mph W  8 mph  15 mph  0.00"  37%  41%  53°F  53°F  29.93"
Sun 03:00 PM  83.6°F  80°F  8 mph W  7 mph  14 mph  0.00"  33%  41%  50°F  53°F  29.95"
Sun 02:00 PM  81.9°F  79°F  5 mph SW  6 mph  10 mph  0.00"  34%  42%  49°F  53°F  29.96"
Sun 01:00 PM  78.9°F  77°F  4 mph SW  5 mph  12 mph  0.00"  38%  46%  50°F  54°F  29.98"
Sun 12:00 PM  75.6°F  74°F  5 mph W  4 mph  9 mph  0.00"  45%  52%  52°F  54°F  30.00"
Sun 11:00 AM  71.0°F  71°F  calm  3 mph  7 mph  0.00"  53%  59%  53°F  55°F  30.01"
Sun 10:00 AM  67.3°F  67°F  2 mph SE  2 mph  7 mph  0.00"  59%  67%  52°F  55°F  30.02"
Sun 09:00 AM  64.4°F  64°F  1 mph NE  2 mph  6 mph  0.00"  66%  73%  52°F  55°F  30.03"
Sun 08:00 AM  60.5°F  62°F  2 mph W  2 mph  4 mph  0.00"  75%  79%  52°F  55°F  30.03"
Sun 07:00 AM  55.9°F  60°F  calm  1 mph  3 mph  0.00"  82%  83%  50°F  54°F  30.02"
Sun 06:00 AM  54.5°F  59°F  calm  2 mph  3 mph  0.00"  82%  82%  49°F  53°F  30.01"
Sun 05:00 AM  55.2°F  59°F  1 mph SE  2 mph  3 mph  0.00"  81%  82%  49°F  53°F  30.00"
Sun 04:00 AM  56.1°F  60°F  3 mph SE  1 mph  3 mph  0.00"  80%  81%  50°F  53°F  30.00"
Sun 03:00 AM  57.1°F  60°F  1 mph SE  2 mph  4 mph  0.00"  78%  79%  50°F  54°F  30.01"
Sun 02:00 AM  58.7°F  61°F  2 mph SE  2 mph  3 mph  0.00"  75%  78%  50°F  54°F  30.02"
Sun 01:00 AM  60.6°F  62°F  1 mph SE  2 mph  4 mph  0.00"  72%  76%  51°F  54°F  30.03"
Sun 12:00 AM  61.6°F  63°F  2 mph W  2 mph  6 mph  0.00"  70%  74%  52°F  54°F  30.04"
Sat 11:00 PM  62.3°F  64°F  4 mph SW  3 mph  7 mph  0.00"  69%  71%  52°F  54°F  30.04"
Sat 10:00 PM  63.9°F  65°F  3 mph W  4 mph  7 mph  0.00"  65%  67%  52°F  54°F  30.03"
Sat 09:00 PM  66.2°F  67°F  3 mph W  4 mph  9 mph  0.00"  61%  62%  52°F  54°F  30.01"
Sat 08:00 PM  67.5°F  70°F  4 mph SW  5 mph  12 mph  0.00"  57%  56%  51°F  53°F  30.01"
Sat 07:00 PM  70.2°F  73°F  4 mph W  7 mph  17 mph  0.00"  53%  50%  52°F  52°F  30.00"
Sat 06:00 PM  73.0°F  75°F  6 mph SW  8 mph  18 mph  0.00"  48%  45%  51°F  52°F  30.00"
Sat 05:00 PM  75.2°F  77°F  6 mph W  8 mph  16 mph  0.00"  42%  43%  50°F  52°F  29.99"
Sat 04:00 PM  76.8°F  79°F  8 mph W  8 mph  15 mph  0.00"  39%  42%  49°F  53°F  29.99"
Sat 03:00 PM  75.6°F  79°F  6 mph W  7 mph  12 mph  0.00"  42%  42%  50°F  53°F  30.00"

  1. Current weather data. No green row appears if the current weather data is also the high or low for the current day.
  2. High temperature for the current day.
  3. Low temperature for the current day.

The Riverside (Presidential Park), California weather pages are a service of WeatherCurrents.
Copyright ©Mon May 29 02:46:28 PDT 2017  WeatherCurrents. All rights reserved. - Submit questions and comments - Privacy Policy

This page automatically refreshes every 10 minutes.